createdAt,value
2022-08-11T00:16:54.858Z,6.21
2022-08-11T00:26:56.212Z,6.5
2022-08-11T00:36:59.057Z,5.82
2022-08-11T00:47:28.052Z,5.22
2022-08-11T00:57:35.952Z,7.05
2022-08-11T01:07:59.124Z,6.14
2022-08-11T01:17:23.321Z,7.06
2022-08-11T01:27:26.219Z,7.69
2022-08-11T01:37:29.328Z,7.02
2022-08-11T01:47:35.926Z,6.34
2022-08-11T01:57:43.186Z,7.93
2022-08-11T02:07:53.072Z,6.32
2022-08-11T02:17:54.851Z,8.21
2022-08-11T02:27:52.593Z,6.44
2022-08-11T02:58:11.113Z,9.06
2022-08-11T03:08:18.289Z,8.06
2022-08-11T03:18:13.915Z,8.26
2022-08-11T03:28:18.167Z,8.8
2022-08-11T03:38:21.150Z,6.93
2022-08-11T03:48:29.780Z,6.35
2022-08-11T03:58:41.949Z,7.73
2022-08-11T04:08:57.674Z,8.42
2022-08-11T04:18:58.615Z,8.49
2022-08-11T04:29:09.656Z,8.76
2022-08-11T04:39:07.837Z,8.99
2022-08-11T04:49:24.129Z,7.94
2022-08-11T04:59:26.077Z,7.18
2022-08-11T05:09:36.745Z,8.66
2022-08-11T05:19:36.924Z,8.01
2022-08-11T05:29:47.308Z,10.95
2022-08-11T05:39:47.625Z,14.35
2022-08-11T05:49:51.096Z,9.52
2022-08-11T05:59:57.142Z,11.51
2022-08-11T06:09:57.008Z,17.12
2022-08-11T06:20:04.279Z,8.41
2022-08-11T06:30:04.740Z,12.39
2022-08-11T06:41:29.491Z,11.97
2022-08-11T06:50:10.782Z,10.37
2022-08-11T07:00:12.494Z,10.01
2022-08-11T07:10:24.987Z,8.9
2022-08-11T07:20:19.881Z,9.45
2022-08-11T07:30:30.268Z,10.83
2022-08-11T07:40:35.234Z,8.76
2022-08-11T07:50:36.187Z,10.35
2022-08-11T08:00:43.508Z,9.82
2022-08-11T08:10:43.180Z,7.72
2022-08-11T08:20:48.536Z,7.39
2022-08-11T08:31:02.023Z,7.23
2022-08-11T08:41:00.098Z,6.9
2022-08-11T08:51:08.370Z,10.78
2022-08-11T09:00:57.429Z,10.22
2022-08-11T09:11:16.695Z,8.51
2022-08-11T09:21:36.900Z,8.51
2022-08-11T09:31:21.544Z,7.68
2022-08-11T09:41:56.063Z,7.66
2022-08-11T10:42:09.802Z,5.02
2022-08-11T10:52:06.410Z,7.3
2022-08-11T11:02:11.553Z,9.17
2022-08-11T11:12:07.896Z,6.48
2022-08-11T12:23:11.610Z,4.6
2022-08-11T12:52:51.200Z,4.49
2022-08-11T13:02:52.999Z,4.07
2022-08-11T13:13:01.507Z,3.78
2022-08-11T13:23:05.816Z,6.27
2022-08-11T13:33:13.791Z,5.1
2022-08-11T13:43:14.984Z,4.07
2022-08-11T13:53:17.866Z,4.08
2022-08-11T14:03:23.524Z,4.54
2022-08-11T14:13:26.759Z,3.91
2022-08-11T14:23:30.467Z,7.56
2022-08-11T14:33:31.520Z,4.01
2022-08-11T14:44:13.507Z,3.31
2022-08-11T14:53:52.080Z,4.2
2022-08-11T15:04:02.677Z,3.94
2022-08-11T15:13:56.487Z,5.03
2022-08-11T15:23:58.833Z,5.48
2022-08-11T15:34:04.403Z,4.4
2022-08-11T15:44:03.772Z,6.16
2022-08-11T15:54:07.080Z,4.62
2022-08-11T16:04:12.416Z,3.01
2022-08-11T16:14:19.489Z,5.89
2022-08-11T16:25:59.112Z,4.22
2022-08-11T16:44:32.642Z,3.81
2022-08-11T16:54:52.637Z,5.03
2022-08-11T17:04:40.719Z,5.29
2022-08-11T17:14:45.110Z,6.04
2022-08-11T17:24:46.499Z,3.84
2022-08-11T17:34:55.054Z,4.04
2022-08-11T17:44:54.204Z,4.85
2022-08-11T17:55:05.986Z,4.27
2022-08-11T18:05:08.423Z,4.41
2022-08-11T18:15:13.130Z,5.99
2022-08-11T18:25:25.249Z,5.16
2022-08-11T18:35:49.560Z,5.68
2022-08-11T19:06:05.685Z,7.84
2022-08-11T19:16:22.504Z,6.25
2022-08-11T19:26:31.405Z,6.07
2022-08-11T19:56:42.228Z,7.93
2022-08-11T20:06:28.495Z,7.84
2022-08-11T20:16:47.632Z,6.79
2022-08-11T20:26:30.607Z,8.44
2022-08-11T20:36:23.896Z,6.73
2022-08-11T20:46:27.890Z,6.91
2022-08-11T20:56:30.044Z,9.59
2022-08-11T21:06:32.774Z,5.7
2022-08-11T21:16:53.297Z,5.92
2022-08-11T21:26:42.808Z,7.99
2022-08-11T21:36:56.351Z,6.28
2022-08-11T21:47:42.621Z,6.22
2022-08-11T21:57:47.832Z,6.37
2022-08-11T22:07:42.308Z,5.74
2022-08-11T22:17:35.237Z,5.49
2022-08-11T22:27:40.706Z,5.45
2022-08-11T22:38:02.687Z,5.59
2022-08-11T22:47:58.769Z,5.58
2022-08-11T22:58:01.017Z,10.15
2022-08-11T23:08:12.528Z,6.12
2022-08-11T23:48:25.413Z,8.06
2022-08-11T23:58:42.478Z,6
